createdAt,value
2023-01-17T00:00:30.092Z,83.79
2023-01-17T00:04:40.567Z,83.77
2023-01-17T00:08:55.949Z,83.83
2023-01-17T00:17:34.195Z,83.31
2023-01-17T00:21:45.213Z,83.83
2023-01-17T00:25:58.645Z,84.12
2023-01-17T00:29:53.255Z,84.45
2023-01-17T00:33:58.712Z,84.69
2023-01-17T00:37:50.647Z,84.90
2023-01-17T00:41:43.492Z,85.12
2023-01-17T00:45:54.379Z,85.22
2023-01-17T00:50:04.735Z,85.28
2023-01-17T00:54:17.501Z,85.05
2023-01-17T00:58:28.928Z,85.04
2023-01-17T01:02:39.885Z,85.12
2023-01-17T01:06:51.309Z,85.33
2023-01-17T01:11:02.168Z,84.85
2023-01-17T01:15:12.773Z,84.95
2023-01-17T01:19:37.511Z,85.15
2023-01-17T01:23:47.666Z,85.09
2023-01-17T01:27:57.969Z,84.90
2023-01-17T01:32:08.170Z,84.81
2023-01-17T01:36:20.215Z,84.51
2023-01-17T01:40:32.011Z,84.25
2023-01-17T01:44:44.189Z,84.02
2023-01-17T01:48:58.922Z,83.92
2023-01-17T01:53:11.530Z,83.96
2023-01-17T01:57:23.636Z,83.91
2023-01-17T02:01:35.762Z,83.92
2023-01-17T02:05:47.333Z,84.11
2023-01-17T02:09:59.808Z,84.09
2023-01-17T02:14:10.271Z,83.76
2023-01-17T02:18:28.276Z,83.74
2023-01-17T02:22:40.232Z,83.80
2023-01-17T02:26:55.256Z,83.41
2023-01-17T02:31:13.661Z,83.44
2023-01-17T02:35:28.594Z,83.38
2023-01-17T02:39:46.511Z,83.39
2023-01-17T02:43:58.891Z,83.22
2023-01-17T02:48:11.112Z,83.27
2023-01-17T02:52:35.836Z,83.32
2023-01-17T02:56:45.371Z,83.50
2023-01-17T03:01:09.636Z,83.38
2023-01-17T03:05:21.443Z,83.44
2023-01-17T03:09:33.831Z,83.39
2023-01-17T03:14:04.897Z,83.62
2023-01-17T03:18:16.540Z,83.90
2023-01-17T03:22:28.492Z,84.16
2023-01-17T03:26:48.758Z,84.66
2023-01-17T03:31:00.889Z,85.03
2023-01-17T03:35:13.173Z,85.40
2023-01-17T03:39:39.056Z,85.88
2023-01-17T03:44:04.740Z,86.24
2023-01-17T03:48:17.649Z,86.51
2023-01-17T03:52:29.618Z,86.82
2023-01-17T03:56:41.730Z,86.98
2023-01-17T04:00:54.175Z,87.16
2023-01-17T04:05:06.145Z,87.47
2023-01-17T04:09:12.798Z,87.67
2023-01-17T04:13:23.228Z,87.75
2023-01-17T04:17:35.530Z,87.84
2023-01-17T04:26:08.719Z,87.97
2023-01-17T04:30:19.666Z,87.91
2023-01-17T04:34:50.456Z,87.74
2023-01-17T04:39:02.215Z,87.69
2023-01-17T04:43:14.393Z,87.67
2023-01-17T04:47:26.229Z,87.62
2023-01-17T04:51:41.232Z,87.57
2023-01-17T04:55:52.848Z,87.38
2023-01-17T05:00:04.675Z,87.40
2023-01-17T05:04:35.256Z,87.34
2023-01-17T05:09:05.931Z,87.41
2023-01-17T05:13:17.594Z,87.42
2023-01-17T05:17:29.805Z,87.39
2023-01-17T05:21:41.799Z,87.33
2023-01-17T05:26:12.752Z,87.17
2023-01-17T05:30:24.188Z,87.22
2023-01-17T05:34:50.271Z,87.16
2023-01-17T05:39:02.653Z,87.22
2023-01-17T05:43:17.056Z,87.22
2023-01-17T05:47:29.601Z,87.15
2023-01-17T05:51:41.832Z,86.75
2023-01-17T05:55:54.291Z,86.72
2023-01-17T06:00:06.335Z,86.64
2023-01-17T06:04:18.538Z,86.41
2023-01-17T06:08:30.509Z,86.29
2023-01-17T06:12:42.780Z,86.45
2023-01-17T06:16:55.008Z,86.37
2023-01-17T06:21:06.968Z,86.50
2023-01-17T06:25:19.169Z,86.77
2023-01-17T06:29:31.281Z,86.85
2023-01-17T06:33:43.325Z,86.82
2023-01-17T06:37:55.455Z,86.48
2023-01-17T06:42:07.870Z,86.56
2023-01-17T06:46:20.239Z,86.69
2023-01-17T06:50:34.347Z,86.84
2023-01-17T06:54:46.159Z,86.91
2023-01-17T06:58:58.473Z,86.77
2023-01-17T07:03:10.492Z,86.83
2023-01-17T07:07:16.699Z,86.83
2023-01-17T07:11:28.923Z,86.77
2023-01-17T07:15:35.494Z,87.10
2023-01-17T07:19:47.333Z,87.13
2023-01-17T07:23:59.889Z,87.55
2023-01-17T07:28:11.975Z,87.25
2023-01-17T07:32:23.909Z,87.09
2023-01-17T07:36:35.936Z,87.53
2023-01-17T07:40:43.494Z,87.70
2023-01-17T07:44:55.824Z,87.91
2023-01-17T07:49:08.357Z,88.13
2023-01-17T07:53:20.393Z,88.40
2023-01-17T07:57:32.862Z,88.34
2023-01-17T08:01:45.423Z,88.41
2023-01-17T08:05:57.691Z,88.56
2023-01-17T08:10:10.024Z,88.77
2023-01-17T08:14:21.975Z,88.89
2023-01-17T08:18:34.081Z,89.07
2023-01-17T08:22:45.968Z,89.12
2023-01-17T08:26:58.173Z,89.07
2023-01-17T08:31:02.283Z,89.04
2023-01-17T08:35:14.104Z,89.11
2023-01-17T08:39:18.392Z,89.23
2023-01-17T08:43:36.591Z,89.17
2023-01-17T08:47:49.091Z,89.33
2023-01-17T08:52:01.228Z,89.43
2023-01-17T08:56:13.320Z,89.27
2023-01-17T09:00:38.979Z,89.21
2023-01-17T09:04:51.744Z,89.27
2023-01-17T09:08:58.276Z,89.15
2023-01-17T09:13:10.317Z,88.92
2023-01-17T09:17:21.127Z,88.85
2023-01-17T09:21:34.210Z,88.64
2023-01-17T09:25:48.512Z,88.37
2023-01-17T09:30:01.466Z,88.20
2023-01-17T09:34:32.775Z,88.29
2023-01-17T09:38:39.299Z,88.28
2023-01-17T09:47:18.972Z,88.27
2023-01-17T09:51:31.442Z,88.40
2023-01-17T09:56:02.388Z,88.34
2023-01-17T10:00:13.755Z,88.11
2023-01-17T10:04:24.605Z,87.89
2023-01-17T10:08:35.105Z,87.59
2023-01-17T10:12:48.883Z,87.58
2023-01-17T10:16:59.401Z,87.55
2023-01-17T10:21:24.186Z,87.33
2023-01-17T10:25:49.857Z,87.33
2023-01-17T10:30:02.022Z,87.37
2023-01-17T10:34:16.506Z,87.25
2023-01-17T10:38:28.994Z,87.36
2023-01-17T10:42:36.154Z,87.37
2023-01-17T10:46:48.882Z,87.37
2023-01-17T10:51:01.578Z,87.39
2023-01-17T10:55:49.615Z,87.32
2023-01-17T11:00:04.838Z,87.25
2023-01-17T11:04:16.885Z,87.20
2023-01-17T11:08:41.283Z,87.19
2023-01-17T11:12:51.613Z,87.08
2023-01-17T11:17:03.692Z,87.13
2023-01-17T11:21:21.628Z,87.21
2023-01-17T11:25:34.699Z,87.23
2023-01-17T11:29:50.171Z,87.13
2023-01-17T11:34:07.276Z,87.11
2023-01-17T11:38:19.705Z,86.97
2023-01-17T11:42:32.088Z,86.79
2023-01-17T11:51:39.751Z,86.69
2023-01-17T11:55:52.013Z,86.64
2023-01-17T12:00:13.950Z,86.46
2023-01-17T12:04:26.001Z,86.07
2023-01-17T12:08:44.253Z,85.72
2023-01-17T12:13:23.489Z,85.69
2023-01-17T12:17:35.925Z,85.63
2023-01-17T12:22:01.913Z,85.55
2023-01-17T12:26:12.426Z,85.37
2023-01-17T12:30:24.634Z,85.33
2023-01-17T12:34:39.699Z,85.29
2023-01-17T12:38:44.349Z,85.19
2023-01-17T12:42:57.049Z,84.77
2023-01-17T12:47:15.308Z,84.31
2023-01-17T12:51:32.312Z,84.37
2023-01-17T12:55:48.031Z,84.39
2023-01-17T13:00:01.236Z,84.10
2023-01-17T13:04:13.670Z,83.71
2023-01-17T13:08:29.205Z,83.32
2023-01-17T13:12:41.624Z,83.22
2023-01-17T13:16:59.098Z,83.13
2023-01-17T13:21:13.835Z,83.23
2023-01-17T13:25:43.035Z,83.46
2023-01-17T13:29:53.604Z,83.53
2023-01-17T13:34:09.444Z,83.54
2023-01-17T13:38:19.822Z,83.46
2023-01-17T13:42:32.334Z,83.33
2023-01-17T13:46:45.014Z,83.54
2023-01-17T13:51:00.951Z,83.58
2023-01-17T13:55:13.376Z,83.50
2023-01-17T13:59:28.378Z,83.55
2023-01-17T14:03:41.983Z,83.75
2023-01-17T14:08:08.473Z,83.99
2023-01-17T14:12:19.857Z,84.13
2023-01-17T14:16:32.015Z,83.86
2023-01-17T14:20:57.504Z,83.74
2023-01-17T14:25:10.221Z,83.68
2023-01-17T14:29:36.125Z,83.79
2023-01-17T14:33:51.343Z,83.91
2023-01-17T14:38:03.390Z,83.98
2023-01-17T14:42:15.556Z,84.01
2023-01-17T14:46:27.627Z,84.10
2023-01-17T14:50:38.139Z,84.07
2023-01-17T14:54:44.851Z,83.97
2023-01-17T14:58:56.975Z,83.98
2023-01-17T15:03:09.099Z,83.99
2023-01-17T15:07:21.439Z,83.95
2023-01-17T15:11:36.601Z,84.11
2023-01-17T15:15:45.616Z,84.19
2023-01-17T15:20:22.419Z,84.29
2023-01-17T15:24:37.051Z,84.46
2023-01-17T15:29:03.239Z,84.58
2023-01-17T15:33:15.083Z,84.67
2023-01-17T15:37:27.355Z,84.68
2023-01-17T15:41:39.724Z,84.71
2023-01-17T15:45:52.462Z,84.66
2023-01-17T15:50:05.385Z,84.65
2023-01-17T15:54:17.849Z,84.61
2023-01-17T15:58:29.344Z,84.45
2023-01-17T16:02:43.218Z,84.43
2023-01-17T16:06:56.126Z,84.35
2023-01-17T16:11:07.751Z,84.29
2023-01-17T16:15:20.125Z,84.25
2023-01-17T16:19:32.464Z,83.96
2023-01-17T16:23:44.634Z,83.80
2023-01-17T16:27:56.784Z,83.73
2023-01-17T16:32:09.200Z,83.44
2023-01-17T16:36:21.888Z,83.24
2023-01-17T16:40:42.255Z,82.66
2023-01-17T16:45:13.679Z,82.31
2023-01-17T16:49:25.680Z,82.67
2023-01-17T16:53:38.065Z,82.87
2023-01-17T16:57:50.789Z,83.21
2023-01-17T17:02:03.262Z,83.44
2023-01-17T17:06:15.375Z,83.48
2023-01-17T17:10:27.924Z,83.71
2023-01-17T17:14:39.620Z,83.89
2023-01-17T17:18:51.782Z,84.11
2023-01-17T17:23:03.703Z,84.23
2023-01-17T17:27:15.774Z,83.89
2023-01-17T17:31:27.939Z,83.85
2023-01-17T17:35:58.649Z,84.15
2023-01-17T17:40:10.712Z,84.34
2023-01-17T17:44:29.292Z,84.62
2023-01-17T17:48:41.871Z,84.94
2023-01-17T17:52:54.814Z,85.17
2023-01-17T17:57:07.617Z,85.00
2023-01-17T18:01:19.820Z,84.89
2023-01-17T18:05:31.969Z,85.04
2023-01-17T18:10:01.821Z,85.13
2023-01-17T18:14:12.834Z,85.29
2023-01-17T18:18:44.421Z,85.21
2023-01-17T18:22:48.189Z,85.21
2023-01-17T18:27:00.496Z,85.21
2023-01-17T18:31:12.891Z,85.19
2023-01-17T18:35:47.940Z,85.24
2023-01-17T18:39:52.894Z,85.35
2023-01-17T18:44:05.069Z,85.26
2023-01-17T18:48:11.371Z,85.11
2023-01-17T18:52:23.103Z,85.08
2023-01-17T18:56:35.439Z,85.12
2023-01-17T19:00:48.395Z,85.05
2023-01-17T19:05:01.110Z,84.86
2023-01-17T19:09:14.884Z,84.80
2023-01-17T19:13:27.505Z,84.68
2023-01-17T19:17:40.099Z,84.63
2023-01-17T19:22:06.593Z,84.47
2023-01-17T19:26:18.731Z,84.44
2023-01-17T19:30:25.536Z,84.54
2023-01-17T19:34:38.065Z,84.73
2023-01-17T19:39:06.092Z,84.86
2023-01-17T19:43:18.632Z,84.82
2023-01-17T19:47:30.657Z,84.80
2023-01-17T19:51:46.040Z,84.79
2023-01-17T19:56:17.022Z,84.66
2023-01-17T20:00:30.383Z,84.60
2023-01-17T20:04:42.976Z,84.53
2023-01-17T20:13:21.379Z,84.32
2023-01-17T20:17:34.658Z,84.27
2023-01-17T20:21:53.060Z,84.24
2023-01-17T20:26:22.254Z,84.49
2023-01-17T20:30:29.495Z,84.61
2023-01-17T20:34:44.092Z,84.71
2023-01-17T20:39:09.367Z,84.71
2023-01-17T20:43:21.772Z,84.79
2023-01-17T20:47:34.113Z,84.91
2023-01-17T20:51:46.542Z,85.03
2023-01-17T20:55:58.820Z,84.97
2023-01-17T21:00:11.472Z,84.99
2023-01-17T21:04:23.738Z,85.06
2023-01-17T21:08:36.123Z,85.09
2023-01-17T21:12:48.810Z,85.07
2023-01-17T21:17:01.840Z,85.16
2023-01-17T21:21:14.814Z,85.24
2023-01-17T21:25:28.465Z,85.28
2023-01-17T21:29:36.486Z,85.38
2023-01-17T21:33:47.907Z,85.29
2023-01-17T21:37:59.921Z,85.23
2023-01-17T21:42:08.884Z,85.19
2023-01-17T21:46:18.609Z,85.15
2023-01-17T21:50:35.299Z,85.13
2023-01-17T21:54:47.983Z,85.15
2023-01-17T21:59:06.071Z,85.24
2023-01-17T22:03:07.540Z,85.31
2023-01-17T22:07:18.834Z,85.30
2023-01-17T22:11:32.727Z,85.34
2023-01-17T22:15:45.006Z,85.42
2023-01-17T22:20:10.889Z,85.47
2023-01-17T22:24:29.235Z,85.47
2023-01-17T22:28:36.250Z,85.44
2023-01-17T22:33:02.637Z,85.45
2023-01-17T22:37:15.002Z,85.47
2023-01-17T22:41:30.180Z,85.41
2023-01-17T22:45:35.925Z,85.37
2023-01-17T22:50:02.200Z,85.35
2023-01-17T22:54:14.150Z,85.33
2023-01-17T22:58:35.021Z,85.31
2023-01-17T23:02:41.464Z,85.30
2023-01-17T23:06:55.891Z,85.29
2023-01-17T23:11:06.940Z,85.21
2023-01-17T23:15:20.644Z,85.13
2023-01-17T23:25:51.606Z,85.15
2023-01-17T23:29:31.729Z,85.16
2023-01-17T23:44:41.312Z,85.49
2023-01-17T23:48:48.509Z,85.49
2023-01-17T23:53:00.633Z,85.48
2023-01-17T23:57:12.774Z,85.39
